createdAt,value
2018-09-04T00:02:12.708Z,14.47
2018-09-04T00:04:41.178Z,27.98
2018-09-04T00:07:09.614Z,18.73
2018-09-04T00:09:38.051Z,19.42
2018-09-04T00:12:06.519Z,17.50
2018-09-04T00:14:34.928Z,18.05
2018-09-04T00:17:03.354Z,18.33
2018-09-04T00:19:31.762Z,17.23
2018-09-04T00:22:00.283Z,18.82
2018-09-04T00:24:28.822Z,17.93
2018-09-04T00:26:57.265Z,18.60
2018-09-04T00:29:25.700Z,18.82
2018-09-04T00:31:54.448Z,23.47
2018-09-04T00:34:22.909Z,20.40
2018-09-04T00:36:51.333Z,19.15
2018-09-04T00:39:20.188Z,18.47
2018-09-04T00:41:49.242Z,18.87
2018-09-04T00:44:17.662Z,19.20
2018-09-04T00:46:46.097Z,19.37
2018-09-04T00:49:14.523Z,18.60
2018-09-04T00:51:42.953Z,19.13
2018-09-04T00:54:11.413Z,19.77
2018-09-04T00:56:39.825Z,18.63
2018-09-04T00:59:08.458Z,20.03
2018-09-04T01:01:36.955Z,19.77
2018-09-04T01:04:05.427Z,18.80
2018-09-04T01:06:34.009Z,18.93
2018-09-04T01:09:02.550Z,26.47
2018-09-04T01:11:31.049Z,19.67
2018-09-04T01:14:06.066Z,19.87
2018-09-04T01:16:34.614Z,19.93
2018-09-04T01:19:03.003Z,20.00
2018-09-04T01:21:31.470Z,19.77
2018-09-04T01:23:59.854Z,21.03
2018-09-04T01:26:28.330Z,21.37
2018-09-04T01:28:56.812Z,22.83
2018-09-04T01:31:25.254Z,21.60
2018-09-04T01:33:53.679Z,23.10
2018-09-04T01:36:22.145Z,20.57
2018-09-04T01:38:51.072Z,23.17
2018-09-04T01:41:20.108Z,23.47
2018-09-04T01:43:49.028Z,23.83
2018-09-04T01:46:17.458Z,24.33
2018-09-04T01:48:45.895Z,25.97
2018-09-04T01:51:14.499Z,22.50
2018-09-04T01:53:42.977Z,20.90
2018-09-04T01:56:11.397Z,21.57
2018-09-04T01:58:39.806Z,21.33
2018-09-04T02:01:08.250Z,24.17
2018-09-04T02:03:36.796Z,22.73
2018-09-04T02:06:05.246Z,20.97
2018-09-04T02:08:33.657Z,19.53
2018-09-04T02:11:02.053Z,18.47
2018-09-04T02:13:30.528Z,18.70
2018-09-04T02:15:58.962Z,20.23
2018-09-04T02:18:27.361Z,18.13
2018-09-04T02:20:55.775Z,17.47
2018-09-04T02:23:24.209Z,15.93
2018-09-04T02:25:52.610Z,17.23
2018-09-04T02:28:21.084Z,16.50
2018-09-04T02:30:49.512Z,16.83
2018-09-04T02:33:17.926Z,17.23
2018-09-04T02:35:46.465Z,16.30
2018-09-04T02:38:15.513Z,15.53
2018-09-04T02:40:44.002Z,16.27
2018-09-04T02:43:12.426Z,16.93
2018-09-04T02:52:39.960Z,16.30
2018-09-04T02:55:15.035Z,16.37
2018-09-04T02:57:43.422Z,17.20
2018-09-04T03:00:11.919Z,19.93
2018-09-04T03:02:40.332Z,19.43
2018-09-04T03:05:08.743Z,19.97
2018-09-04T03:07:37.210Z,25.17
2018-09-04T03:10:06.573Z,24.67
2018-09-04T03:12:35.015Z,21.07
2018-09-04T03:15:03.519Z,20.25
2018-09-04T03:17:32.362Z,19.77
2018-09-04T03:20:00.781Z,23.30
2018-09-04T03:22:29.913Z,21.10
2018-09-04T03:24:58.399Z,18.17
2018-09-04T03:27:26.788Z,15.93
2018-09-04T03:29:55.206Z,17.53
2018-09-04T03:32:23.674Z,17.37
2018-09-04T03:34:52.118Z,16.60
2018-09-04T03:37:20.495Z,20.07
2018-09-04T03:39:48.943Z,18.67
2018-09-04T03:42:17.451Z,18.37
2018-09-04T03:44:46.055Z,18.53
2018-09-04T03:47:14.601Z,19.43
2018-09-04T03:49:43.030Z,18.63
2018-09-04T03:52:11.498Z,19.98
2018-09-04T03:54:39.945Z,18.27
2018-09-04T03:57:08.364Z,18.93
2018-09-04T03:59:36.825Z,18.30
2018-09-04T04:02:05.351Z,17.83
2018-09-04T04:04:33.824Z,18.17
2018-09-04T04:07:02.220Z,18.23
2018-09-04T04:09:30.628Z,17.60
2018-09-04T04:11:59.643Z,17.10
2018-09-04T04:14:28.734Z,17.23
2018-09-04T04:16:57.486Z,16.43
2018-09-04T04:19:25.955Z,18.10
2018-09-04T04:21:54.373Z,18.83
2018-09-04T04:24:22.750Z,18.93
2018-09-04T04:26:51.228Z,18.27
2018-09-04T04:29:19.847Z,18.25
2018-09-04T04:31:48.341Z,20.13
2018-09-04T04:34:16.806Z,20.13
2018-09-04T04:36:45.269Z,20.23
2018-09-04T04:39:13.670Z,19.47
2018-09-04T04:41:42.079Z,20.10
2018-09-04T04:44:10.553Z,20.10
2018-09-04T04:46:38.931Z,22.83
2018-09-04T04:49:07.858Z,25.02
2018-09-04T04:51:36.358Z,22.63
2018-09-04T04:54:05.258Z,23.43
2018-09-04T04:56:33.665Z,22.90
2018-09-04T04:59:02.200Z,23.23
2018-09-04T05:01:30.672Z,22.60
2018-09-04T05:03:59.741Z,23.87
2018-09-04T05:06:28.273Z,22.40
2018-09-04T05:08:56.761Z,22.47
2018-09-04T05:11:25.743Z,22.50
2018-09-04T05:13:54.304Z,23.37
2018-09-04T05:16:22.789Z,23.90
2018-09-04T05:18:51.370Z,23.93
2018-09-04T05:21:19.962Z,25.13
2018-09-04T05:23:48.345Z,27.57
2018-09-04T05:26:16.806Z,29.00
2018-09-04T05:28:45.263Z,29.77
2018-09-04T05:31:13.860Z,32.67
2018-09-04T05:33:48.910Z,31.37
2018-09-04T05:36:17.447Z,34.20
2018-09-04T05:38:45.820Z,31.73
2018-09-04T05:41:14.265Z,31.70
2018-09-04T05:43:52.004Z,32.43
2018-09-04T05:46:26.205Z,30.90
2018-09-04T05:48:55.618Z,34.27
2018-09-04T05:51:24.029Z,33.10
2018-09-04T05:53:52.554Z,31.93
2018-09-04T05:56:20.999Z,31.80
2018-09-04T05:58:49.479Z,31.17
2018-09-04T06:01:18.098Z,31.00
2018-09-04T06:03:46.467Z,31.80
2018-09-04T06:06:14.980Z,31.60
2018-09-04T06:08:43.361Z,33.30
2018-09-04T06:11:11.824Z,32.90
2018-09-04T06:13:40.539Z,33.73
2018-09-04T06:16:09.555Z,33.87
2018-09-04T06:18:38.008Z,35.50
2018-09-04T06:21:06.109Z,33.27
2018-09-04T06:23:34.518Z,33.63
2018-09-04T06:26:02.995Z,32.40
2018-09-04T06:28:31.446Z,27.00
2018-09-04T06:30:59.904Z,28.60
2018-09-04T06:33:28.291Z,26.47
2018-09-04T06:35:56.706Z,26.30
2018-09-04T06:38:25.192Z,26.77
2018-09-04T06:40:53.669Z,24.53
2018-09-04T06:43:22.088Z,23.40
2018-09-04T06:45:50.547Z,22.90
2018-09-04T06:48:18.985Z,22.17
2018-09-04T06:50:47.471Z,23.40
2018-09-04T06:53:16.388Z,23.03
2018-09-04T06:55:44.855Z,23.97
2018-09-04T06:58:13.720Z,23.07
2018-09-04T07:00:42.165Z,22.93
2018-09-04T07:03:11.197Z,22.67
2018-09-04T07:05:39.758Z,23.80
2018-09-04T07:08:08.324Z,22.47
2018-09-04T07:10:36.759Z,22.83
2018-09-04T07:13:05.444Z,23.23
2018-09-04T07:15:33.950Z,22.37
2018-09-04T07:18:02.463Z,22.50
2018-09-04T07:20:30.979Z,24.43
2018-09-04T07:22:59.497Z,23.70
2018-09-04T07:25:29.275Z,25.30
2018-09-04T07:27:57.778Z,23.53
2018-09-04T07:30:26.213Z,23.90
2018-09-04T07:32:54.757Z,24.70
2018-09-04T07:35:23.197Z,24.43
2018-09-04T07:37:51.913Z,24.80
2018-09-04T07:40:20.351Z,24.30
2018-09-04T07:42:48.808Z,25.43
2018-09-04T07:45:17.321Z,23.83
2018-09-04T07:47:45.854Z,25.37
2018-09-04T07:50:14.262Z,25.27
2018-09-04T07:52:42.902Z,23.83
2018-09-04T07:55:11.898Z,24.03
2018-09-04T07:57:41.392Z,24.10
2018-09-04T08:00:10.753Z,22.82
2018-09-04T08:02:39.978Z,21.85
2018-09-04T08:05:09.644Z,20.43
2018-09-04T08:07:38.117Z,20.77
2018-09-04T08:10:06.632Z,22.05
2018-09-04T08:12:35.091Z,21.73
2018-09-04T08:15:03.608Z,22.77
2018-09-04T08:17:32.077Z,21.27
2018-09-04T08:20:00.599Z,23.15
2018-09-04T08:22:29.085Z,22.52
2018-09-04T08:24:57.550Z,22.85
2018-09-04T08:27:25.978Z,22.55
2018-09-04T08:29:54.603Z,24.60
2018-09-04T08:32:23.911Z,23.73
2018-09-04T08:34:52.417Z,23.60
2018-09-04T08:37:20.905Z,22.93
2018-09-04T08:39:49.336Z,23.75
2018-09-04T08:42:17.777Z,24.70
2018-09-04T08:44:46.294Z,24.32
2018-09-04T08:47:14.940Z,24.75
2018-09-04T08:49:43.384Z,24.77
2018-09-04T08:52:12.158Z,25.82
2018-09-04T08:54:41.351Z,26.33
2018-09-04T08:57:09.822Z,24.10
2018-09-04T08:59:38.330Z,24.20
2018-09-04T09:02:06.824Z,25.02
2018-09-04T09:04:35.271Z,25.35
2018-09-04T09:07:03.887Z,23.92
2018-09-04T09:09:32.373Z,24.40
2018-09-04T09:12:00.921Z,23.87
2018-09-04T09:14:29.483Z,24.00
2018-09-04T09:16:57.994Z,24.45
2018-09-04T09:19:26.500Z,23.73
2018-09-04T09:21:55.084Z,24.57
2018-09-04T09:24:23.572Z,24.80
2018-09-04T09:26:52.172Z,22.10
2018-09-04T09:29:20.677Z,23.15
2018-09-04T09:31:49.363Z,20.62
2018-09-04T09:34:17.896Z,22.42
2018-09-04T09:36:46.541Z,21.45
2018-09-04T09:39:14.960Z,19.98
2018-09-04T09:41:43.456Z,20.30
2018-09-04T09:44:12.000Z,19.42
2018-09-04T09:46:41.423Z,21.10
2018-09-04T09:49:10.221Z,20.52
2018-09-04T09:51:38.853Z,19.05
2018-09-04T09:54:07.405Z,20.10
2018-09-04T09:56:35.958Z,20.20
2018-09-04T09:59:04.462Z,20.45
2018-09-04T10:01:38.240Z,22.87
2018-09-04T10:04:07.797Z,29.82
2018-09-04T10:06:36.336Z,22.02
2018-09-04T10:09:06.999Z,21.17
2018-09-04T10:11:35.772Z,22.87
2018-09-04T10:14:04.315Z,21.65
2018-09-04T10:16:32.727Z,22.55
2018-09-04T10:19:01.202Z,23.20
2018-09-04T10:21:30.265Z,20.75
2018-09-04T10:23:58.983Z,21.50
2018-09-04T10:26:27.865Z,20.35
2018-09-04T10:28:56.372Z,19.42
2018-09-04T10:31:31.442Z,18.60
2018-09-04T10:33:59.888Z,20.15
2018-09-04T10:36:28.398Z,21.07
2018-09-04T10:39:02.228Z,20.08
2018-09-04T10:41:31.420Z,19.50
2018-09-04T10:44:00.158Z,20.48
2018-09-04T10:46:28.738Z,18.87
2018-09-04T10:48:57.233Z,17.90
2018-09-04T10:51:26.761Z,19.92
2018-09-04T10:53:55.320Z,19.35
2018-09-04T10:56:23.863Z,20.23
2018-09-04T10:58:52.443Z,18.50
2018-09-04T11:01:20.997Z,19.37
2018-09-04T11:03:49.486Z,18.07
2018-09-04T11:06:18.037Z,17.60
2018-09-04T11:08:46.569Z,19.77
2018-09-04T11:11:15.050Z,16.35
2018-09-04T11:13:43.682Z,17.60
2018-09-04T11:16:12.210Z,16.15
2018-09-04T11:18:40.950Z,17.65
2018-09-04T11:21:09.804Z,17.32
2018-09-04T11:23:38.429Z,18.15
2018-09-04T11:26:07.061Z,19.52
2018-09-04T11:28:38.954Z,19.12
2018-09-04T11:31:10.007Z,17.95
2018-09-04T11:33:38.613Z,16.30
2018-09-04T11:36:08.439Z,16.77
2018-09-04T11:38:37.180Z,17.12
2018-09-04T11:41:07.934Z,14.83
2018-09-04T11:43:42.353Z,12.95
2018-09-04T11:46:14.112Z,12.03
2018-09-04T11:48:42.628Z,12.37
2018-09-04T11:51:16.511Z,13.72
2018-09-04T11:53:45.366Z,12.93
2018-09-04T11:56:18.630Z,14.50
2018-09-04T11:58:47.170Z,13.98
2018-09-04T12:01:17.041Z,13.70
2018-09-04T12:03:45.750Z,14.40
2018-09-04T12:06:14.292Z,13.43
2018-09-04T12:08:42.826Z,11.45
2018-09-04T12:11:11.601Z,9.30
2018-09-04T12:13:40.817Z,10.78
2018-09-04T12:16:09.403Z,11.95
2018-09-04T12:18:37.874Z,11.88
2018-09-04T12:21:08.112Z,14.05
2018-09-04T12:23:37.781Z,9.35
2018-09-04T12:26:07.799Z,9.65
2018-09-04T12:28:36.346Z,11.15
2018-09-04T12:31:05.205Z,8.08
2018-09-04T12:33:33.825Z,13.85
2018-09-04T12:36:02.363Z,9.53
2018-09-04T12:38:34.216Z,11.60
2018-09-04T12:41:08.078Z,13.72
2018-09-04T12:43:38.268Z,12.70
2018-09-04T12:46:07.107Z,7.60
2018-09-04T12:48:35.620Z,8.38
2018-09-04T12:51:04.210Z,9.73
2018-09-04T12:53:33.657Z,21.68
2018-09-04T12:56:02.301Z,8.80
2018-09-04T12:58:30.905Z,8.13
2018-09-04T13:00:59.649Z,7.35
2018-09-04T13:03:29.185Z,8.08
2018-09-04T13:05:57.838Z,7.03
2018-09-04T13:08:27.957Z,6.90
2018-09-04T13:10:56.532Z,7.40
2018-09-04T13:13:25.222Z,7.40
2018-09-04T13:15:56.318Z,17.50
2018-09-04T13:18:25.549Z,7.03
2018-09-04T13:20:58.244Z,6.33
2018-09-04T13:23:26.919Z,8.90
2018-09-04T13:25:56.370Z,6.80
2018-09-04T13:28:25.006Z,6.45
2018-09-04T13:30:53.596Z,6.40
2018-09-04T13:33:22.230Z,5.90
2018-09-04T13:35:50.671Z,5.22
2018-09-04T13:38:19.380Z,11.35
2018-09-04T13:40:48.086Z,5.60
2018-09-04T13:43:16.624Z,4.90
2018-09-04T13:45:45.248Z,5.62
2018-09-04T13:48:13.794Z,5.15
2018-09-04T13:50:42.906Z,5.25
2018-09-04T13:53:12.193Z,4.83
2018-09-04T13:55:40.810Z,5.30
2018-09-04T13:58:09.935Z,5.25
2018-09-04T14:00:38.425Z,5.70
2018-09-04T14:03:06.960Z,5.78
2018-09-04T14:05:35.329Z,5.78
2018-09-04T14:08:03.870Z,5.78
2018-09-04T14:10:32.322Z,5.47
2018-09-04T14:13:00.802Z,5.62
2018-09-04T14:15:29.210Z,7.40
2018-09-04T14:17:57.696Z,5.83
2018-09-04T14:20:26.192Z,5.75
2018-09-04T14:22:54.746Z,5.17
2018-09-04T14:25:23.384Z,5.55
2018-09-04T14:27:51.938Z,5.40
2018-09-04T14:30:20.473Z,4.80
2018-09-04T14:32:48.901Z,5.83
2018-09-04T14:35:17.422Z,5.03
2018-09-04T14:37:45.982Z,5.50
2018-09-04T14:40:14.423Z,6.28
2018-09-04T14:42:43.133Z,6.00
2018-09-04T14:45:11.926Z,5.45
2018-09-04T14:47:40.349Z,5.50
2018-09-04T14:50:09.045Z,5.50
2018-09-04T14:52:37.521Z,5.87
2018-09-04T14:55:06.234Z,5.87
2018-09-04T14:57:34.800Z,5.72
2018-09-04T15:00:03.311Z,6.95
2018-09-04T15:02:31.807Z,7.97
2018-09-04T15:05:00.382Z,6.17
2018-09-04T15:07:28.885Z,7.20
2018-09-04T15:09:57.437Z,10.93
2018-09-04T15:12:25.891Z,7.70
2018-09-04T15:14:54.376Z,13.10
2018-09-04T15:17:22.909Z,13.10
2018-09-04T15:19:51.403Z,10.53
2018-09-04T15:22:19.837Z,26.27
2018-09-04T15:24:48.335Z,14.28
2018-09-04T15:27:16.818Z,11.30
2018-09-04T15:29:45.422Z,16.20
2018-09-04T15:32:13.925Z,15.05
2018-09-04T15:34:42.760Z,10.25
2018-09-04T15:37:11.458Z,16.48
2018-09-04T15:39:40.199Z,11.20
2018-09-04T15:42:09.079Z,12.05
2018-09-04T15:44:39.113Z,18.67
2018-09-04T15:47:07.662Z,25.68
2018-09-04T15:49:41.558Z,12.63
2018-09-04T15:52:10.806Z,16.05
2018-09-04T15:54:39.990Z,19.42
2018-09-04T15:57:08.769Z,17.62
2018-09-04T15:59:38.202Z,16.45
2018-09-04T16:02:06.765Z,19.30
2018-09-04T16:04:35.303Z,12.65
2018-09-04T16:07:03.787Z,22.60
2018-09-04T16:09:39.124Z,16.80
2018-09-04T16:12:07.733Z,26.02
2018-09-04T16:14:36.491Z,28.20
2018-09-04T16:17:04.975Z,23.60
2018-09-04T16:19:33.475Z,18.57
2018-09-04T16:22:02.074Z,12.43
2018-09-04T16:24:30.790Z,15.10
2018-09-04T16:26:59.236Z,11.12
2018-09-04T16:29:27.875Z,13.88
2018-09-04T16:31:56.401Z,14.40
2018-09-04T16:34:24.996Z,33.92
2018-09-04T16:36:53.461Z,10.70
2018-09-04T16:39:22.039Z,11.50
2018-09-04T16:41:50.594Z,10.25
2018-09-04T16:44:19.057Z,15.75
2018-09-04T16:46:47.622Z,18.00
2018-09-04T16:49:16.049Z,14.38
2018-09-04T16:51:44.734Z,11.60
2018-09-04T16:54:13.119Z,13.40
2018-09-04T16:56:42.095Z,12.20
2018-09-04T16:59:11.703Z,14.53
2018-09-04T17:01:40.412Z,13.38
2018-09-04T17:04:09.559Z,23.85
2018-09-04T17:06:38.049Z,17.95
2018-09-04T17:09:06.754Z,17.17
2018-09-04T17:11:35.494Z,27.00
2018-09-04T17:14:04.224Z,41.13
2018-09-04T17:16:33.658Z,24.20
2018-09-04T17:19:02.130Z,14.70
2018-09-04T17:21:30.798Z,16.82
2018-09-04T17:23:59.449Z,15.23
2018-09-04T17:26:28.027Z,12.60
2018-09-04T17:28:56.660Z,8.25
2018-09-04T17:31:25.117Z,10.03
2018-09-04T17:33:53.599Z,9.98
2018-09-04T17:36:22.659Z,8.55
2018-09-04T17:38:51.120Z,9.08
2018-09-04T17:41:19.571Z,8.93
2018-09-04T17:43:48.033Z,15.95
2018-09-04T17:46:16.662Z,11.68
2018-09-04T17:48:45.220Z,10.45
2018-09-04T17:51:13.672Z,14.58
2018-09-04T17:53:42.176Z,19.27
2018-09-04T17:56:10.929Z,15.65
2018-09-04T17:58:39.972Z,10.30
2018-09-04T18:01:08.603Z,15.63
2018-09-04T18:03:43.658Z,11.88
2018-09-04T18:06:12.538Z,28.57
2018-09-04T18:08:41.834Z,12.82
2018-09-04T18:11:10.793Z,17.45
2018-09-04T18:13:40.238Z,26.68
2018-09-04T18:16:08.740Z,40.63
2018-09-04T18:18:37.288Z,34.27
2018-09-04T18:21:06.131Z,33.90
2018-09-04T18:23:34.616Z,29.02
2018-09-04T18:26:03.160Z,30.23
2018-09-04T18:28:31.636Z,26.85
2018-09-04T18:31:00.159Z,21.68
2018-09-04T18:33:28.620Z,23.52
2018-09-04T18:35:57.253Z,25.12
2018-09-04T18:38:26.161Z,21.12
2018-09-04T18:40:54.658Z,27.50
2018-09-04T18:43:23.293Z,22.40
2018-09-04T18:45:54.305Z,14.83
2018-09-04T18:48:22.796Z,14.98
2018-09-04T18:50:51.277Z,18.80
2018-09-04T18:53:19.830Z,17.62
2018-09-04T18:55:48.355Z,13.72
2018-09-04T18:58:16.835Z,10.80
2018-09-04T19:00:45.600Z,9.95
2018-09-04T19:03:14.162Z,12.15
2018-09-04T19:05:42.710Z,10.88
2018-09-04T19:08:11.497Z,10.30
2018-09-04T19:10:40.301Z,9.65
2018-09-04T19:13:08.762Z,10.95
2018-09-04T19:15:37.397Z,11.15
2018-09-04T19:18:05.855Z,9.08
2018-09-04T19:20:34.378Z,11.22
2018-09-04T19:23:03.015Z,11.05
2018-09-04T19:25:31.508Z,10.25
2018-09-04T19:28:00.059Z,11.45
2018-09-04T19:30:28.534Z,9.45
2018-09-04T19:32:57.088Z,9.63
2018-09-04T19:35:25.546Z,10.00
2018-09-04T19:37:53.938Z,10.35
2018-09-04T19:40:22.364Z,9.75
2018-09-04T19:42:50.895Z,10.18
2018-09-04T19:45:19.342Z,10.65
2018-09-04T19:47:47.798Z,10.32
2018-09-04T19:50:16.253Z,10.98
2018-09-04T19:52:44.683Z,10.72
2018-09-04T19:55:13.093Z,11.03
2018-09-04T19:57:41.868Z,11.28
2018-09-04T20:00:13.858Z,11.83
2018-09-04T20:04:06.788Z,11.05
2018-09-04T20:06:35.356Z,10.68
2018-09-04T20:09:04.692Z,10.78
2018-09-04T20:11:33.068Z,10.85
2018-09-04T20:14:01.477Z,11.90
2018-09-04T20:16:30.051Z,11.78
2018-09-04T20:18:58.504Z,9.95
2018-09-04T20:21:27.029Z,10.82
2018-09-04T20:23:55.463Z,11.60
2018-09-04T20:26:23.921Z,11.35
2018-09-04T20:28:52.470Z,11.65
2018-09-04T20:31:20.969Z,10.58
2018-09-04T20:33:49.432Z,11.22
2018-09-04T20:36:17.797Z,10.32
2018-09-04T20:38:46.221Z,11.75
2018-09-04T20:41:14.762Z,13.58
2018-09-04T20:43:43.145Z,18.77
2018-09-04T20:46:11.782Z,31.25
2018-09-04T20:48:41.140Z,16.90
2018-09-04T20:51:10.298Z,11.12
2018-09-04T20:53:38.756Z,9.78
2018-09-04T20:56:07.602Z,10.25
2018-09-04T20:58:47.373Z,10.08
2018-09-04T21:01:27.131Z,10.15
2018-09-04T21:04:06.730Z,10.95
2018-09-04T21:06:46.735Z,10.58
2018-09-04T21:09:27.199Z,11.78
2018-09-04T21:11:55.593Z,10.50
2018-09-04T21:14:24.489Z,10.20
2018-09-04T21:16:53.308Z,11.05
2018-09-04T21:19:21.874Z,10.28
2018-09-04T21:21:50.366Z,12.45
2018-09-04T21:24:32.775Z,14.90
2018-09-04T21:27:01.189Z,13.18
2018-09-04T21:29:29.697Z,11.78
2018-09-04T21:31:58.656Z,17.15
2018-09-04T21:34:27.150Z,12.60
2018-09-04T21:36:57.594Z,10.98
2018-09-04T21:39:26.115Z,11.18
2018-09-04T21:41:54.514Z,10.98
2018-09-04T21:44:27.349Z,10.65
2018-09-04T21:46:55.750Z,11.22
2018-09-04T21:49:24.266Z,14.15
2018-09-04T21:51:52.762Z,12.00
2018-09-04T21:54:21.208Z,13.13
2018-09-04T21:56:49.764Z,12.60
2018-09-04T21:59:18.151Z,11.33
2018-09-04T22:01:46.576Z,13.35
2018-09-04T22:04:15.216Z,12.18
2018-09-04T22:06:43.555Z,11.30
2018-09-04T22:09:11.938Z,11.70
2018-09-04T22:11:40.382Z,11.15
2018-09-04T22:14:08.772Z,11.10
2018-09-04T22:16:37.254Z,11.75
2018-09-04T22:19:05.758Z,10.68
2018-09-04T22:21:34.173Z,11.18
2018-09-04T22:24:02.500Z,10.58
2018-09-04T22:26:30.917Z,11.48
2018-09-04T22:28:59.381Z,11.35
2018-09-04T22:31:27.790Z,11.57
2018-09-04T22:33:56.302Z,11.50
2018-09-04T22:36:24.757Z,14.25
2018-09-04T22:38:53.182Z,13.22
2018-09-04T22:41:21.665Z,14.23
2018-09-04T22:43:50.082Z,15.63
2018-09-04T22:46:18.597Z,12.88
2018-09-04T22:48:47.067Z,23.57
2018-09-04T22:51:48.362Z,12.07
2018-09-04T22:54:17.153Z,11.88
2018-09-04T22:56:45.668Z,14.70
2018-09-04T22:59:14.071Z,13.10
2018-09-04T23:01:42.507Z,13.75
2018-09-04T23:04:10.967Z,12.88
2018-09-04T23:06:45.760Z,12.50
2018-09-04T23:09:14.279Z,11.68
2018-09-04T23:11:43.210Z,13.62
2018-09-04T23:14:11.692Z,12.88
2018-09-04T23:16:40.180Z,13.03
2018-09-04T23:19:08.717Z,13.53
2018-09-04T23:21:37.239Z,13.18
2018-09-04T23:24:05.788Z,12.13
2018-09-04T23:26:34.272Z,14.25
2018-09-04T23:29:02.695Z,13.35
2018-09-04T23:31:31.175Z,12.47
2018-09-04T23:33:59.586Z,13.48
2018-09-04T23:36:28.011Z,13.15
2018-09-04T23:38:56.392Z,12.95
2018-09-04T23:41:25.006Z,12.53
2018-09-04T23:43:53.360Z,13.58
2018-09-04T23:46:21.840Z,13.20
2018-09-04T23:48:50.265Z,14.20
2018-09-04T23:51:18.756Z,14.00
2018-09-04T23:53:47.149Z,13.45
2018-09-04T23:56:15.570Z,13.55
2018-09-04T23:58:44.574Z,12.98
